createdAt,value
2022-09-25T00:00:58.092Z,15.27
2022-09-25T00:01:57.976Z,15.23
2022-09-25T00:02:57.972Z,15.20
2022-09-25T00:03:57.918Z,15.25
2022-09-25T00:04:57.918Z,15.11
2022-09-25T00:05:57.928Z,15.13
2022-09-25T00:06:57.936Z,15.19
2022-09-25T00:07:57.931Z,15.27
2022-09-25T00:08:57.950Z,15.21
2022-09-25T00:09:57.917Z,15.17
2022-09-25T00:10:57.930Z,15.21
2022-09-25T00:11:57.940Z,15.23
2022-09-25T00:12:57.933Z,15.19
2022-09-25T00:13:57.924Z,15.16
2022-09-25T00:14:57.919Z,15.20
2022-09-25T00:15:57.987Z,15.16
2022-09-25T00:16:57.973Z,15.16
2022-09-25T00:17:57.942Z,15.14
2022-09-25T00:18:57.948Z,15.14
2022-09-25T00:19:57.924Z,15.19
2022-09-25T00:20:57.922Z,15.19
2022-09-25T00:21:57.936Z,15.14
2022-09-25T00:22:57.942Z,15.17
2022-09-25T00:23:57.950Z,15.19
2022-09-25T00:24:57.924Z,15.23
2022-09-25T00:25:57.938Z,15.16
2022-09-25T00:26:57.943Z,15.13
2022-09-25T00:27:57.923Z,15.17
2022-09-25T00:28:57.924Z,15.17
2022-09-25T00:29:57.934Z,15.19
2022-09-25T00:30:57.939Z,15.20
2022-09-25T00:31:57.940Z,15.14
2022-09-25T00:32:57.936Z,15.17
2022-09-25T00:33:57.936Z,15.17
2022-09-25T00:34:57.948Z,15.16
2022-09-25T00:35:57.928Z,15.17
2022-09-25T00:36:57.936Z,15.16
2022-09-25T00:37:57.941Z,15.17
2022-09-25T00:38:57.942Z,15.17
2022-09-25T00:39:57.929Z,15.20
2022-09-25T00:40:57.981Z,15.11
2022-09-25T00:41:57.929Z,15.13
2022-09-25T00:42:57.943Z,15.16
2022-09-25T00:43:57.937Z,15.10
2022-09-25T00:44:57.942Z,15.13
2022-09-25T00:45:58.016Z,15.09
2022-09-25T00:46:57.973Z,15.09
2022-09-25T00:47:57.952Z,15.06
2022-09-25T00:48:57.942Z,15.10
2022-09-25T00:49:57.950Z,15.10
2022-09-25T00:50:57.941Z,15.13
2022-09-25T00:51:57.939Z,15.10
2022-09-25T00:52:57.968Z,15.10
2022-09-25T00:53:57.938Z,15.03
2022-09-25T00:54:57.949Z,14.98
2022-09-25T00:55:57.966Z,15.13
2022-09-25T00:56:57.945Z,15.02
2022-09-25T00:57:57.979Z,15.01
2022-09-25T00:58:57.950Z,15.10
2022-09-25T00:59:57.942Z,15.10
2022-09-25T01:00:58.033Z,15.11
2022-09-25T01:01:57.978Z,15.02
2022-09-25T01:02:58.025Z,14.95
2022-09-25T01:03:57.955Z,14.94
2022-09-25T01:04:57.953Z,15.02
2022-09-25T01:05:57.954Z,14.99
2022-09-25T01:06:57.959Z,15.01
2022-09-25T01:07:57.966Z,15.02
2022-09-25T01:08:57.968Z,14.99
2022-09-25T01:09:57.946Z,14.95
2022-09-25T01:10:57.954Z,14.98
2022-09-25T01:11:57.965Z,15.01
2022-09-25T01:12:57.981Z,15.01
2022-09-25T01:13:57.958Z,14.99
2022-09-25T01:14:57.949Z,14.98
2022-09-25T01:15:57.966Z,15.02
2022-09-25T01:16:58.047Z,14.99
2022-09-25T01:17:57.958Z,15.02
2022-09-25T01:18:57.949Z,15.01
2022-09-25T01:19:57.977Z,14.99
2022-09-25T01:20:57.985Z,14.96
2022-09-25T01:21:57.969Z,14.98
2022-09-25T01:22:57.971Z,14.99
2022-09-25T01:23:57.974Z,14.98
2022-09-25T01:24:58.038Z,14.91
2022-09-25T01:25:57.951Z,14.94
2022-09-25T01:26:57.987Z,14.95
2022-09-25T01:27:57.967Z,14.95
2022-09-25T01:28:57.975Z,15.01
2022-09-25T01:29:57.959Z,14.95
2022-09-25T01:30:57.988Z,15.01
2022-09-25T01:31:57.967Z,14.95
2022-09-25T01:32:58.010Z,14.94
2022-09-25T01:33:57.980Z,14.89
2022-09-25T01:34:57.960Z,14.92
2022-09-25T01:35:57.959Z,14.94
2022-09-25T01:36:57.958Z,14.84
2022-09-25T01:37:57.962Z,14.91
2022-09-25T01:38:57.969Z,14.83
2022-09-25T01:39:57.981Z,14.81
2022-09-25T01:40:58.152Z,14.84
2022-09-25T01:41:57.969Z,14.84
2022-09-25T01:42:57.979Z,14.88
2022-09-25T01:43:57.978Z,14.86
2022-09-25T01:44:57.980Z,14.81
2022-09-25T01:45:58.030Z,14.88
2022-09-25T01:46:57.972Z,14.88
2022-09-25T01:47:57.976Z,14.92
2022-09-25T01:48:57.972Z,14.95
2022-09-25T01:49:57.962Z,14.81
2022-09-25T01:50:57.988Z,14.94
2022-09-25T01:51:57.963Z,14.94
2022-09-25T01:52:57.973Z,14.94
2022-09-25T01:53:57.977Z,14.84
2022-09-25T01:54:57.980Z,14.92
2022-09-25T01:55:57.993Z,14.92
2022-09-25T01:56:58.018Z,14.86
2022-09-25T01:57:57.973Z,14.84
2022-09-25T01:58:57.984Z,14.94
2022-09-25T01:59:57.976Z,14.91
2022-09-25T02:00:58.040Z,14.94
2022-09-25T02:01:57.989Z,14.84
2022-09-25T02:02:58.012Z,14.95
2022-09-25T02:03:58.000Z,14.89
2022-09-25T02:04:57.966Z,14.99
2022-09-25T02:05:57.983Z,14.89
2022-09-25T02:06:57.987Z,14.98
2022-09-25T02:07:57.994Z,14.92
2022-09-25T02:08:57.980Z,14.91
2022-09-25T02:09:57.987Z,14.92
2022-09-25T02:10:57.977Z,14.92
2022-09-25T02:11:57.997Z,14.84
2022-09-25T02:12:57.990Z,14.89
2022-09-25T02:13:57.991Z,14.84
2022-09-25T02:14:57.997Z,14.86
2022-09-25T02:15:57.999Z,14.91
2022-09-25T02:16:58.076Z,14.80
2022-09-25T02:17:57.998Z,14.73
2022-09-25T02:18:58.007Z,14.72
2022-09-25T02:19:57.976Z,14.70
2022-09-25T02:20:57.974Z,14.77
2022-09-25T02:21:57.988Z,14.80
2022-09-25T02:22:57.979Z,14.80
2022-09-25T02:23:58.003Z,14.80
2022-09-25T02:24:59.309Z,14.75
2022-09-25T02:25:57.982Z,14.78
2022-09-25T02:26:57.984Z,14.72
2022-09-25T02:27:57.992Z,14.83
2022-09-25T02:28:58.011Z,14.69
2022-09-25T02:29:58.030Z,14.65
2022-09-25T02:30:58.021Z,14.68
2022-09-25T02:31:58.004Z,14.69
2022-09-25T02:32:58.011Z,14.58
2022-09-25T02:33:58.002Z,14.70
2022-09-25T02:34:58.005Z,14.69
2022-09-25T02:35:57.995Z,14.73
2022-09-25T02:36:58.000Z,14.65
2022-09-25T02:37:57.997Z,14.64
2022-09-25T02:38:57.994Z,14.62
2022-09-25T02:39:58.052Z,14.57
2022-09-25T02:40:58.034Z,14.65
2022-09-25T02:41:58.000Z,14.57
2022-09-25T02:42:57.993Z,14.60
2022-09-25T02:43:58.001Z,14.69
2022-09-25T02:44:58.013Z,14.64
2022-09-25T02:45:58.036Z,14.62
2022-09-25T02:46:57.996Z,14.58
2022-09-25T02:47:57.992Z,14.62
2022-09-25T02:48:57.998Z,14.68
2022-09-25T02:49:57.995Z,14.65
2022-09-25T02:50:58.013Z,14.65
2022-09-25T02:51:58.002Z,14.62
2022-09-25T02:52:58.022Z,14.69
2022-09-25T02:53:58.001Z,14.58
2022-09-25T02:54:57.991Z,14.57
2022-09-25T02:55:58.025Z,14.61
2022-09-25T02:57:03.571Z,14.65
2022-09-25T02:57:58.001Z,14.64
2022-09-25T02:58:57.996Z,14.64
2022-09-25T02:59:58.008Z,14.64
2022-09-25T03:00:58.162Z,14.62
2022-09-25T03:01:58.051Z,14.60
2022-09-25T03:02:58.050Z,14.65
2022-09-25T03:03:58.018Z,14.57
2022-09-25T03:04:57.995Z,14.61
2022-09-25T03:05:58.000Z,14.60
2022-09-25T03:06:58.024Z,14.68
2022-09-25T03:07:58.010Z,14.60
2022-09-25T03:08:57.996Z,14.65
2022-09-25T03:09:57.999Z,14.62
2022-09-25T03:10:58.008Z,14.62
2022-09-25T03:11:58.007Z,14.60
2022-09-25T03:12:58.017Z,14.58
2022-09-25T03:13:58.038Z,14.60
2022-09-25T03:14:57.997Z,14.61
2022-09-25T03:15:58.076Z,14.60
2022-09-25T03:16:58.143Z,14.60
2022-09-25T03:17:58.003Z,14.61
2022-09-25T03:18:58.008Z,14.61
2022-09-25T03:19:58.044Z,14.61
2022-09-25T03:20:58.006Z,14.62
2022-09-25T03:21:58.014Z,14.64
2022-09-25T03:22:58.035Z,14.64
2022-09-25T03:23:57.999Z,14.61
2022-09-25T03:24:58.012Z,14.47
2022-09-25T03:25:58.012Z,14.47
2022-09-25T03:26:58.020Z,14.58
2022-09-25T03:27:58.003Z,14.57
2022-09-25T03:28:58.019Z,14.57
2022-09-25T03:29:57.999Z,14.62
2022-09-25T03:30:58.048Z,14.61
2022-09-25T03:31:58.017Z,14.61
2022-09-25T03:32:58.009Z,14.58
2022-09-25T03:33:58.038Z,14.60
2022-09-25T03:34:58.014Z,14.65
2022-09-25T03:35:58.010Z,14.68
2022-09-25T03:36:58.024Z,14.61
2022-09-25T03:37:58.025Z,14.65
2022-09-25T03:38:58.037Z,14.64
2022-09-25T03:39:58.028Z,14.58
2022-09-25T03:40:58.040Z,14.68
2022-09-25T03:41:58.008Z,14.64
2022-09-25T03:42:58.017Z,14.64
2022-09-25T03:43:58.047Z,14.62
2022-09-25T03:44:58.002Z,14.64
2022-09-25T03:45:58.030Z,14.61
2022-09-25T03:46:58.018Z,14.60
2022-09-25T03:47:58.006Z,14.60
2022-09-25T03:48:58.140Z,14.58
2022-09-25T03:49:58.022Z,14.62
2022-09-25T03:50:58.006Z,14.51
2022-09-25T03:51:58.032Z,14.46
2022-09-25T03:52:58.017Z,14.46
2022-09-25T03:53:58.028Z,14.43
2022-09-25T03:54:58.039Z,14.42
2022-09-25T03:55:58.012Z,14.42
2022-09-25T03:56:58.016Z,14.40
2022-09-25T03:57:58.010Z,14.46
2022-09-25T03:58:58.032Z,14.47
2022-09-25T03:59:58.042Z,14.42
2022-09-25T04:00:58.091Z,14.42
2022-09-25T04:01:58.044Z,14.43
2022-09-25T04:02:58.065Z,14.51
2022-09-25T04:03:58.031Z,14.43
2022-09-25T04:04:58.025Z,14.54
2022-09-25T04:05:58.026Z,14.43
2022-09-25T04:06:58.015Z,14.54
2022-09-25T04:07:58.024Z,14.47
2022-09-25T04:08:58.032Z,14.51
2022-09-25T04:09:58.038Z,14.51
2022-09-25T04:10:58.013Z,14.51
2022-09-25T04:11:58.052Z,14.52
2022-09-25T04:12:58.063Z,14.46
2022-09-25T04:13:58.025Z,14.43
2022-09-25T04:14:58.016Z,14.50
2022-09-25T04:15:58.050Z,14.46
2022-09-25T04:16:58.018Z,14.45
2022-09-25T04:18:01.120Z,14.46
2022-09-25T04:18:58.019Z,14.37
2022-09-25T04:19:58.020Z,14.39
2022-09-25T04:20:58.013Z,14.40
2022-09-25T04:21:58.017Z,14.35
2022-09-25T04:22:58.025Z,14.39
2022-09-25T04:23:58.042Z,14.43
2022-09-25T04:24:58.043Z,14.35
2022-09-25T04:25:58.031Z,14.42
2022-09-25T04:26:58.018Z,14.43
2022-09-25T04:27:58.028Z,14.43
2022-09-25T04:28:58.044Z,14.42
2022-09-25T04:29:58.031Z,14.43
2022-09-25T04:30:58.034Z,14.36
2022-09-25T04:31:58.071Z,14.32
2022-09-25T04:32:58.027Z,14.43
2022-09-25T04:33:58.030Z,14.32
2022-09-25T04:34:58.030Z,14.32
2022-09-25T04:35:58.025Z,14.28
2022-09-25T04:37:08.003Z,14.39
2022-09-25T04:37:58.522Z,14.24
2022-09-25T04:38:58.823Z,14.24
2022-09-25T04:39:58.795Z,14.32
2022-09-25T04:40:58.914Z,14.36
2022-09-25T04:41:58.958Z,14.24
2022-09-25T04:42:58.927Z,14.32
2022-09-25T04:43:58.862Z,14.28
2022-09-25T04:44:58.749Z,14.29
2022-09-25T04:45:58.913Z,14.32
2022-09-25T04:46:58.677Z,14.29
2022-09-25T04:47:58.913Z,14.36
2022-09-25T04:48:58.782Z,14.32
2022-09-25T04:49:58.152Z,14.37
2022-09-25T04:50:58.055Z,14.35
2022-09-25T04:51:58.725Z,14.35
2022-09-25T04:52:58.046Z,14.39
2022-09-25T04:53:58.022Z,14.32
2022-09-25T04:54:58.044Z,14.35
2022-09-25T04:55:58.033Z,14.28
2022-09-25T04:56:58.048Z,14.28
2022-09-25T04:57:59.348Z,14.35
2022-09-25T04:58:58.040Z,14.32
2022-09-25T04:59:58.032Z,14.35
2022-09-25T05:00:58.099Z,14.37
2022-09-25T05:01:58.162Z,14.28
2022-09-25T05:02:58.154Z,14.29
2022-09-25T05:03:58.035Z,14.33
2022-09-25T05:04:58.064Z,14.33
2022-09-25T05:05:58.042Z,14.35
2022-09-25T05:06:58.059Z,14.25
2022-09-25T05:07:58.041Z,14.33
2022-09-25T05:08:58.026Z,14.35
2022-09-25T05:09:58.051Z,14.35
2022-09-25T05:10:58.043Z,14.28
2022-09-25T05:11:58.033Z,14.27
2022-09-25T05:12:58.054Z,14.32
2022-09-25T05:13:58.078Z,14.33
2022-09-25T05:14:58.033Z,14.32
2022-09-25T05:15:58.219Z,14.27
2022-09-25T05:16:58.052Z,14.25
2022-09-25T05:17:58.048Z,14.27
2022-09-25T05:18:58.045Z,14.27
2022-09-25T05:19:58.101Z,14.28
2022-09-25T05:20:58.057Z,14.28
2022-09-25T05:21:58.039Z,14.27
2022-09-25T05:22:58.043Z,14.27
2022-09-25T05:23:58.056Z,14.27
2022-09-25T05:24:59.133Z,14.32
2022-09-25T05:25:58.048Z,14.35
2022-09-25T05:26:58.044Z,14.33
2022-09-25T05:27:58.042Z,14.29
2022-09-25T05:28:58.057Z,14.32
2022-09-25T05:29:58.045Z,14.32
2022-09-25T05:30:58.061Z,14.33
2022-09-25T05:31:58.033Z,14.33
2022-09-25T05:32:58.062Z,14.32
2022-09-25T05:33:58.053Z,14.28
2022-09-25T05:34:58.057Z,14.36
2022-09-25T05:35:58.078Z,14.40
2022-09-25T05:36:58.042Z,14.33
2022-09-25T05:37:58.045Z,14.36
2022-09-25T05:38:58.035Z,14.35
2022-09-25T05:39:58.059Z,14.35
2022-09-25T05:40:58.071Z,14.36
2022-09-25T05:41:58.048Z,14.36
2022-09-25T05:42:58.068Z,14.47
2022-09-25T05:43:58.066Z,14.39
2022-09-25T05:44:59.538Z,14.42
2022-09-25T05:45:58.119Z,14.42
2022-09-25T05:46:58.044Z,14.47
2022-09-25T05:47:58.042Z,14.50
2022-09-25T05:48:58.038Z,14.54
2022-09-25T05:49:58.054Z,14.52
2022-09-25T05:50:58.071Z,14.54
2022-09-25T05:51:58.062Z,14.51
2022-09-25T05:52:58.037Z,14.47
2022-09-25T05:53:58.044Z,14.60
2022-09-25T05:54:58.051Z,14.60
2022-09-25T05:55:58.097Z,14.61
2022-09-25T05:56:58.066Z,14.62
2022-09-25T05:57:58.059Z,14.73
2022-09-25T05:58:58.038Z,14.68
2022-09-25T05:59:58.044Z,14.68
2022-09-25T06:00:58.052Z,14.69
2022-09-25T06:01:58.113Z,14.78
2022-09-25T06:02:58.149Z,14.75
2022-09-25T06:03:58.055Z,14.75
2022-09-25T06:04:58.052Z,14.70
2022-09-25T06:05:58.066Z,14.73
2022-09-25T06:06:58.037Z,14.64
2022-09-25T06:07:58.047Z,14.77
2022-09-25T06:08:58.071Z,14.70
2022-09-25T06:09:58.049Z,14.80
2022-09-25T06:10:58.047Z,14.80
2022-09-25T06:11:58.056Z,14.80
2022-09-25T06:12:58.038Z,14.69
2022-09-25T06:13:58.064Z,14.83
2022-09-25T06:14:58.050Z,14.92
2022-09-25T06:15:58.087Z,14.98
2022-09-25T06:16:58.050Z,15.14
2022-09-25T06:17:58.097Z,15.14
2022-09-25T06:18:58.062Z,15.10
2022-09-25T06:19:58.068Z,15.03
2022-09-25T06:20:58.054Z,15.01
2022-09-25T06:21:58.061Z,15.02
2022-09-25T06:22:58.053Z,14.96
2022-09-25T06:23:58.049Z,14.96
2022-09-25T06:24:58.053Z,15.01
2022-09-25T06:25:58.057Z,14.96
2022-09-25T06:26:58.057Z,14.94
2022-09-25T06:27:58.046Z,14.83
2022-09-25T06:29:02.867Z,14.94
2022-09-25T06:29:58.058Z,14.86
2022-09-25T06:30:58.134Z,14.83
2022-09-25T06:31:58.051Z,14.86
2022-09-25T06:32:58.045Z,14.86
2022-09-25T06:33:58.044Z,14.75
2022-09-25T06:34:58.054Z,14.80
2022-09-25T06:35:58.073Z,14.75
2022-09-25T06:36:58.178Z,14.73
2022-09-25T06:37:58.065Z,14.72
2022-09-25T06:38:58.058Z,14.77
2022-09-25T06:39:58.045Z,14.75
2022-09-25T06:41:00.066Z,14.61
2022-09-25T06:41:58.058Z,14.73
2022-09-25T06:42:58.065Z,14.84
2022-09-25T06:43:58.054Z,14.81
2022-09-25T06:44:58.050Z,14.77
2022-09-25T06:45:58.086Z,14.77
2022-09-25T06:46:58.062Z,14.72
2022-09-25T06:47:58.048Z,14.68
2022-09-25T06:48:58.047Z,14.81
2022-09-25T06:49:58.063Z,14.77
2022-09-25T06:50:58.059Z,14.73
2022-09-25T06:51:58.074Z,14.77
2022-09-25T06:52:58.086Z,14.72
2022-09-25T06:53:58.046Z,14.72
2022-09-25T06:54:58.061Z,14.60
2022-09-25T06:55:58.050Z,14.65
2022-09-25T06:56:58.096Z,14.64
2022-09-25T06:57:58.048Z,14.60
2022-09-25T06:58:58.057Z,14.54
2022-09-25T06:59:58.049Z,14.54
2022-09-25T07:00:58.064Z,14.54
2022-09-25T07:01:58.142Z,14.54
2022-09-25T07:02:58.182Z,14.47
2022-09-25T07:03:58.088Z,14.52
2022-09-25T07:04:58.059Z,14.61
2022-09-25T07:05:58.060Z,14.55
2022-09-25T07:06:58.069Z,14.62
2022-09-25T07:07:58.073Z,14.62
2022-09-25T07:08:58.069Z,14.65
2022-09-25T07:09:58.049Z,14.60
2022-09-25T07:10:58.076Z,14.65
2022-09-25T07:11:58.053Z,14.65
2022-09-25T07:12:58.068Z,14.60
2022-09-25T07:13:58.111Z,14.60
2022-09-25T07:14:58.081Z,14.64
2022-09-25T07:15:58.130Z,14.62
2022-09-25T07:16:58.068Z,14.57
2022-09-25T07:17:58.074Z,14.64
2022-09-25T07:18:58.087Z,14.62
2022-09-25T07:19:58.095Z,14.64
2022-09-25T07:20:58.083Z,14.57
2022-09-25T07:21:58.063Z,14.68
2022-09-25T07:22:58.100Z,14.73
2022-09-25T07:23:58.067Z,14.68
2022-09-25T07:24:58.082Z,14.70
2022-09-25T07:25:58.068Z,14.70
2022-09-25T07:26:58.063Z,14.69
2022-09-25T07:27:58.073Z,14.75
2022-09-25T07:28:58.061Z,14.73
2022-09-25T07:29:58.054Z,14.77
2022-09-25T07:30:58.148Z,14.72
2022-09-25T07:31:58.072Z,14.73
2022-09-25T07:33:00.255Z,14.81
2022-09-25T07:33:58.071Z,14.78
2022-09-25T07:34:58.057Z,14.75
2022-09-25T07:35:58.078Z,14.83
2022-09-25T07:36:58.069Z,14.86
2022-09-25T07:37:58.055Z,14.72
2022-09-25T07:38:58.083Z,14.80
2022-09-25T07:39:58.086Z,14.94
2022-09-25T07:40:58.165Z,14.81
2022-09-25T07:41:58.066Z,14.84
2022-09-25T07:42:58.073Z,14.86
2022-09-25T07:44:58.058Z,14.94
2022-09-25T07:45:58.090Z,15.02
2022-09-25T07:46:58.077Z,15.06
2022-09-25T07:47:58.078Z,15.06
2022-09-25T07:48:58.061Z,15.01
2022-09-25T07:49:58.087Z,15.01
2022-09-25T07:50:58.072Z,14.99
2022-09-25T07:51:58.085Z,15.11
2022-09-25T07:52:58.087Z,15.10
2022-09-25T07:53:58.060Z,15.09
2022-09-25T07:54:58.062Z,15.14
2022-09-25T07:56:01.033Z,15.13
2022-09-25T07:56:58.098Z,15.20
2022-09-25T07:57:58.093Z,15.16
2022-09-25T07:58:58.082Z,15.17
2022-09-25T07:59:58.067Z,15.17
2022-09-25T08:00:58.083Z,15.21
2022-09-25T08:01:58.269Z,15.25
2022-09-25T08:02:58.124Z,15.31
2022-09-25T08:03:58.114Z,15.38
2022-09-25T08:04:58.104Z,15.44
2022-09-25T08:05:58.687Z,15.44
2022-09-25T08:06:58.098Z,15.47
2022-09-25T08:07:58.086Z,15.49
2022-09-25T08:08:58.107Z,15.56
2022-09-25T08:09:58.098Z,15.54
2022-09-25T08:10:58.170Z,15.41
2022-09-25T08:11:58.071Z,15.46
2022-09-25T08:12:58.076Z,15.39
2022-09-25T08:13:58.072Z,15.57
2022-09-25T08:14:58.108Z,15.56
2022-09-25T08:15:58.124Z,15.50
2022-09-25T08:16:58.093Z,15.47
2022-09-25T08:17:58.092Z,15.53
2022-09-25T08:18:58.101Z,15.54
2022-09-25T08:19:58.080Z,15.62
2022-09-25T08:20:58.125Z,15.59
2022-09-25T08:21:58.090Z,15.57
2022-09-25T08:22:58.091Z,15.74
2022-09-25T08:23:58.091Z,15.76
2022-09-25T08:24:58.093Z,15.65
2022-09-25T08:25:58.101Z,15.74
2022-09-25T08:26:58.102Z,15.78
2022-09-25T08:27:58.089Z,15.82
2022-09-25T08:28:58.103Z,15.72
2022-09-25T08:29:58.089Z,15.78
2022-09-25T08:30:58.149Z,15.84
2022-09-25T08:31:58.091Z,15.80
2022-09-25T08:32:58.092Z,15.83
2022-09-25T08:34:09.708Z,15.82
2022-09-25T08:34:58.123Z,15.90
2022-09-25T08:35:58.088Z,15.86
2022-09-25T08:36:58.083Z,15.96
2022-09-25T08:37:58.091Z,15.97
2022-09-25T08:38:58.086Z,16.01
2022-09-25T08:39:58.098Z,16.12
2022-09-25T08:40:58.151Z,16.14
2022-09-25T08:41:58.092Z,16.15
2022-09-25T08:42:58.105Z,16.20
2022-09-25T08:43:58.095Z,16.30
2022-09-25T08:45:19.916Z,16.49
2022-09-25T08:45:58.135Z,16.57
2022-09-25T08:46:58.112Z,16.57
2022-09-25T08:47:58.097Z,16.57
2022-09-25T08:48:58.092Z,16.57
2022-09-25T08:49:58.297Z,16.64
2022-09-25T08:50:58.102Z,16.58
2022-09-25T08:51:58.105Z,16.60
2022-09-25T08:52:58.104Z,16.71
2022-09-25T08:53:58.096Z,16.61
2022-09-25T08:54:58.131Z,16.68
2022-09-25T08:55:58.114Z,16.73
2022-09-25T08:56:58.114Z,16.71
2022-09-25T08:57:58.121Z,16.58
2022-09-25T08:58:58.122Z,16.57
2022-09-25T09:00:01.527Z,16.53
2022-09-25T09:00:58.214Z,16.56
2022-09-25T09:01:58.117Z,16.42
2022-09-25T09:02:58.170Z,16.49
2022-09-25T09:04:06.281Z,16.60
2022-09-25T09:04:58.124Z,16.57
2022-09-25T09:05:58.147Z,16.63
2022-09-25T09:07:25.149Z,16.67
2022-09-25T09:07:58.114Z,16.64
2022-09-25T09:08:58.126Z,16.64
2022-09-25T09:09:58.129Z,16.70
2022-09-25T09:10:58.142Z,16.61
2022-09-25T09:11:58.142Z,16.71
2022-09-25T09:12:58.137Z,16.71
2022-09-25T09:13:58.135Z,16.78
2022-09-25T09:14:58.148Z,16.76
2022-09-25T09:15:58.192Z,16.75
2022-09-25T09:16:58.158Z,16.73
2022-09-25T09:17:58.159Z,16.78
2022-09-25T09:18:58.135Z,16.81
2022-09-25T09:19:58.137Z,16.78
2022-09-25T09:20:58.161Z,16.86
2022-09-25T09:21:58.139Z,16.79
2022-09-25T09:22:58.180Z,16.93
2022-09-25T09:23:58.143Z,16.94
2022-09-25T09:24:58.150Z,16.96
2022-09-25T09:25:58.151Z,16.93
2022-09-25T09:26:58.152Z,17.01
2022-09-25T09:27:58.174Z,17.03
2022-09-25T09:28:58.160Z,16.98
2022-09-25T09:30:02.951Z,17.03
2022-09-25T09:30:58.207Z,17.11
2022-09-25T09:31:58.162Z,17.08
2022-09-25T09:32:58.157Z,17.19
2022-09-25T09:33:58.217Z,17.22
2022-09-25T09:35:07.036Z,17.28
2022-09-25T09:35:58.159Z,17.36
2022-09-25T09:36:58.154Z,17.33
2022-09-25T09:37:58.164Z,17.48
2022-09-25T09:38:58.181Z,17.56
2022-09-25T09:39:58.158Z,17.70
2022-09-25T09:40:58.276Z,17.77
2022-09-25T09:41:58.158Z,17.78
2022-09-25T09:42:58.179Z,17.74
2022-09-25T09:43:58.264Z,17.78
2022-09-25T09:44:58.164Z,17.82
2022-09-25T09:45:58.209Z,17.84
2022-09-25T09:46:58.174Z,17.95
2022-09-25T09:47:58.186Z,17.95
2022-09-25T09:48:58.200Z,18.00
2022-09-25T09:49:58.174Z,18.21
2022-09-25T09:50:58.199Z,18.17
2022-09-25T09:51:58.181Z,18.23
2022-09-25T09:52:58.205Z,18.33
2022-09-25T09:53:58.202Z,18.29
2022-09-25T09:54:58.211Z,18.20
2022-09-25T09:55:58.208Z,18.20
2022-09-25T09:56:58.218Z,18.30
2022-09-25T09:57:58.198Z,18.21
2022-09-25T09:58:58.288Z,18.17
2022-09-25T10:00:03.707Z,18.18
2022-09-25T10:01:06.967Z,18.32
2022-09-25T10:01:58.378Z,18.36
2022-09-25T10:02:58.364Z,18.48
2022-09-25T10:03:58.236Z,18.54
2022-09-25T10:04:58.227Z,18.87
2022-09-25T10:05:58.212Z,18.92
2022-09-25T10:06:58.226Z,18.87
2022-09-25T10:07:58.226Z,18.85
2022-09-25T10:08:58.248Z,18.85
2022-09-25T10:09:58.245Z,18.99
2022-09-25T10:10:58.234Z,19.07
2022-09-25T10:11:58.243Z,19.11
2022-09-25T10:13:00.869Z,19.16
2022-09-25T10:13:58.239Z,19.16
2022-09-25T10:14:58.244Z,19.26
2022-09-25T10:15:58.311Z,19.21
2022-09-25T10:16:58.254Z,19.22
2022-09-25T10:17:58.251Z,19.31
2022-09-25T10:18:58.272Z,19.23
2022-09-25T10:19:58.245Z,19.32
2022-09-25T10:20:58.279Z,19.31
2022-09-25T10:21:58.285Z,19.37
2022-09-25T10:22:58.270Z,19.32
2022-09-25T10:23:58.260Z,19.43
2022-09-25T10:24:58.263Z,19.54
2022-09-25T10:25:58.284Z,19.59
2022-09-25T10:26:58.297Z,19.68
2022-09-25T10:27:58.278Z,19.77
2022-09-25T10:28:58.289Z,19.86
2022-09-25T10:29:58.289Z,19.87
2022-09-25T10:30:58.494Z,19.99
2022-09-25T10:31:58.304Z,19.88
2022-09-25T10:32:58.474Z,19.99
2022-09-25T10:33:58.298Z,20.01
2022-09-25T10:34:58.308Z,20.03
2022-09-25T10:35:58.309Z,20.11
2022-09-25T10:37:05.375Z,20.06
2022-09-25T10:37:58.304Z,20.05
2022-09-25T10:39:18.045Z,19.96
2022-09-25T10:39:58.340Z,19.95
2022-09-25T10:40:58.429Z,19.88
2022-09-25T10:41:58.338Z,19.86
2022-09-25T10:42:58.344Z,19.91
2022-09-25T10:43:58.340Z,19.84
2022-09-25T10:44:58.421Z,19.83
2022-09-25T10:45:58.415Z,19.80
2022-09-25T10:46:58.356Z,19.77
2022-09-25T10:47:58.350Z,19.76
2022-09-25T10:48:58.369Z,19.68
2022-09-25T10:49:58.358Z,19.61
2022-09-25T10:50:58.367Z,19.50
2022-09-25T10:51:58.356Z,19.50
2022-09-25T10:52:58.361Z,19.43
2022-09-25T10:53:58.385Z,19.47
2022-09-25T10:54:58.378Z,19.32
2022-09-25T10:55:58.381Z,19.32
2022-09-25T10:56:58.390Z,19.26
2022-09-25T10:57:58.408Z,19.28
2022-09-25T10:58:58.407Z,19.22
2022-09-25T10:59:58.397Z,19.08
2022-09-25T11:00:58.481Z,19.26
2022-09-25T11:01:58.499Z,19.16
2022-09-25T11:02:58.464Z,19.26
2022-09-25T11:03:58.410Z,19.33
2022-09-25T11:04:58.413Z,19.26
2022-09-25T11:05:58.423Z,19.47
2022-09-25T11:06:58.435Z,19.43
2022-09-25T11:07:58.410Z,19.56
2022-09-25T11:08:58.437Z,19.66
2022-09-25T11:10:00.392Z,19.73
2022-09-25T11:10:58.419Z,19.76
2022-09-25T11:11:58.439Z,19.95
2022-09-25T11:12:58.438Z,20.06
2022-09-25T11:13:58.451Z,20.11
2022-09-25T11:14:58.447Z,20.23
2022-09-25T11:15:58.451Z,20.23
2022-09-25T11:16:58.527Z,20.26
2022-09-25T11:17:58.443Z,20.35
2022-09-25T11:19:03.868Z,20.48
2022-09-25T11:19:58.478Z,20.59
2022-09-25T11:20:58.465Z,20.57
2022-09-25T11:21:58.466Z,20.73
2022-09-25T11:22:58.475Z,20.79
2022-09-25T11:23:58.464Z,20.80
2022-09-25T11:25:01.324Z,20.89
2022-09-25T11:25:58.488Z,20.95
2022-09-25T11:26:58.492Z,21.10
2022-09-25T11:27:58.480Z,21.28
2022-09-25T11:28:58.495Z,21.40
2022-09-25T11:29:58.502Z,21.47
2022-09-25T11:30:58.536Z,21.69
2022-09-25T11:31:58.495Z,21.98
2022-09-25T11:32:58.504Z,22.18
2022-09-25T11:33:58.530Z,22.46
2022-09-25T11:34:58.520Z,22.80
2022-09-25T11:35:58.531Z,23.09
2022-09-25T11:36:58.530Z,23.42
2022-09-25T11:37:58.525Z,23.75
2022-09-25T11:38:58.534Z,24.16
2022-09-25T11:39:58.557Z,24.30
2022-09-25T11:40:58.591Z,24.78
2022-09-25T11:41:58.566Z,25.54
2022-09-25T11:42:58.544Z,25.88
2022-09-25T11:43:58.574Z,26.36
2022-09-25T11:44:58.557Z,26.82
2022-09-25T11:45:58.629Z,27.41
2022-09-25T11:46:58.559Z,27.74
2022-09-25T11:47:58.571Z,27.97
2022-09-25T11:48:58.586Z,28.29
2022-09-25T11:49:58.575Z,28.56
2022-09-25T11:50:58.596Z,28.66
2022-09-25T11:51:58.598Z,28.90
2022-09-25T11:52:58.578Z,28.95
2022-09-25T11:54:17.923Z,28.61
2022-09-25T11:54:58.617Z,28.25
2022-09-25T11:55:58.608Z,27.78
2022-09-25T11:56:58.606Z,27.67
2022-09-25T11:57:58.608Z,27.69
2022-09-25T11:58:58.615Z,27.77
2022-09-25T11:59:58.637Z,27.79
2022-09-25T12:00:58.617Z,27.92
2022-09-25T12:01:58.633Z,27.94
2022-09-25T12:02:58.624Z,27.94
2022-09-25T12:03:58.652Z,27.85
2022-09-25T12:04:58.633Z,27.81
2022-09-25T12:05:58.642Z,27.69
2022-09-25T12:06:58.657Z,27.19
2022-09-25T12:07:58.647Z,26.73
2022-09-25T12:08:58.675Z,26.25
2022-09-25T12:09:58.679Z,25.72
2022-09-25T12:10:58.687Z,25.21
2022-09-25T12:11:58.680Z,24.77
2022-09-25T12:12:58.682Z,24.53
2022-09-25T12:13:58.678Z,24.37
2022-09-25T12:14:58.683Z,24.22
2022-09-25T12:15:58.705Z,24.09
2022-09-25T12:16:58.704Z,24.24
2022-09-25T12:17:58.707Z,24.13
2022-09-25T12:18:58.728Z,24.06
2022-09-25T12:19:58.724Z,23.85
2022-09-25T12:20:58.728Z,23.73
2022-09-25T12:21:58.729Z,23.83
2022-09-25T12:22:58.738Z,23.91
2022-09-25T12:23:58.742Z,23.87
2022-09-25T12:24:58.730Z,23.98
2022-09-25T12:25:58.734Z,24.10
2022-09-25T12:26:58.749Z,24.09
2022-09-25T12:27:58.747Z,23.98
2022-09-25T12:28:58.763Z,23.98
2022-09-25T12:29:58.777Z,24.00
2022-09-25T12:31:01.271Z,24.03
2022-09-25T12:31:58.767Z,23.90
2022-09-25T12:32:58.780Z,23.83
2022-09-25T12:33:58.788Z,23.84
2022-09-25T12:34:58.810Z,23.80
2022-09-25T12:35:58.806Z,23.90
2022-09-25T12:36:58.806Z,23.85
2022-09-25T12:37:58.818Z,23.84
2022-09-25T12:38:58.808Z,23.80
2022-09-25T12:39:58.821Z,23.70
2022-09-25T12:40:58.831Z,23.69
2022-09-25T12:41:58.835Z,23.65
2022-09-25T12:42:58.819Z,23.60
2022-09-25T12:43:58.821Z,23.54
2022-09-25T12:44:58.834Z,23.58
2022-09-25T12:45:58.920Z,23.47
2022-09-25T12:46:58.845Z,23.39
2022-09-25T12:47:58.845Z,23.22
2022-09-25T12:48:58.848Z,23.07
2022-09-25T12:49:58.862Z,23.05
2022-09-25T12:51:04.303Z,23.10
2022-09-25T12:51:58.890Z,23.00
2022-09-25T12:52:58.880Z,22.97
2022-09-25T12:53:58.882Z,22.88